sensor_id;sensor_type;location;lat;lon;timestamp;P1;durP1;ratioP1;P2;durP2;ratioP2
56233;SDS011;42141;53.240;6.580;2023-06-05T00:02:15;4.75;;;2.10;;
56233;SDS011;42141;53.240;6.580;2023-06-05T00:04:41;4.68;;;2.92;;
56233;SDS011;42141;53.240;6.580;2023-06-05T00:07:08;3.38;;;2.45;;
56233;SDS011;42141;53.240;6.580;2023-06-05T00:09:34;4.55;;;2.72;;
56233;SDS011;42141;53.240;6.580;2023-06-05T00:12:00;4.40;;;2.60;;
56233;SDS011;42141;53.240;6.580;2023-06-05T00:14:26;3.13;;;2.47;;
56233;SDS011;42141;53.240;6.580;2023-06-05T00:16:52;4.60;;;2.55;;
56233;SDS011;42141;53.240;6.580;2023-06-05T00:19:17;2.75;;;2.13;;
56233;SDS011;42141;53.240;6.580;2023-06-05T00:21:43;3.55;;;2.38;;
56233;SDS011;42141;53.240;6.580;2023-06-05T00:24:09;5.22;;;3.58;;
56233;SDS011;42141;53.240;6.580;2023-06-05T00:26:35;7.03;;;2.83;;
56233;SDS011;42141;53.240;6.580;2023-06-05T00:29:00;6.63;;;3.30;;
56233;SDS011;42141;53.240;6.580;2023-06-05T00:31:26;5.28;;;2.70;;
56233;SDS011;42141;53.240;6.580;2023-06-05T00:33:53;5.38;;;2.65;;
56233;SDS011;42141;53.240;6.580;2023-06-05T00:36:18;3.88;;;2.80;;
56233;SDS011;42141;53.240;6.580;2023-06-05T00:38:48;4.32;;;2.75;;
56233;SDS011;42141;53.240;6.580;2023-06-05T00:41:15;3.90;;;2.90;;
56233;SDS011;42141;53.240;6.580;2023-06-05T00:43:41;2.55;;;2.22;;
56233;SDS011;42141;53.240;6.580;2023-06-05T00:46:07;2.90;;;2.22;;
56233;SDS011;42141;53.240;6.580;2023-06-05T00:48:33;4.20;;;2.10;;
56233;SDS011;42141;53.240;6.580;2023-06-05T00:50:59;4.97;;;2.75;;
56233;SDS011;42141;53.240;6.580;2023-06-05T00:53:26;3.72;;;2.40;;
56233;SDS011;42141;53.240;6.580;2023-06-05T00:55:53;4.55;;;2.47;;
56233;SDS011;42141;53.240;6.580;2023-06-05T00:58:19;10.68;;;3.00;;
56233;SDS011;42141;53.240;6.580;2023-06-05T01:00:45;3.30;;;2.05;;
56233;SDS011;42141;53.240;6.580;2023-06-05T01:03:14;9.15;;;2.30;;
56233;SDS011;42141;53.240;6.580;2023-06-05T01:05:42;6.20;;;2.65;;
56233;SDS011;42141;53.240;6.580;2023-06-05T01:08:08;5.82;;;2.90;;
56233;SDS011;42141;53.240;6.580;2023-06-05T01:10:39;3.90;;;2.30;;
56233;SDS011;42141;53.240;6.580;2023-06-05T01:13:06;4.55;;;2.63;;
56233;SDS011;42141;53.240;6.580;2023-06-05T01:15:40;6.35;;;3.20;;
56233;SDS011;42141;53.240;6.580;2023-06-05T01:18:06;5.13;;;2.72;;
56233;SDS011;42141;53.240;6.580;2023-06-05T01:20:38;3.67;;;2.97;;
56233;SDS011;42141;53.240;6.580;2023-06-05T01:23:08;5.45;;;2.65;;
56233;SDS011;42141;53.240;6.580;2023-06-05T01:25:34;3.67;;;2.53;;
56233;SDS011;42141;53.240;6.580;2023-06-05T01:28:07;3.92;;;2.53;;
56233;SDS011;42141;53.240;6.580;2023-06-05T01:30:45;8.38;;;3.03;;
56233;SDS011;42141;53.240;6.580;2023-06-05T01:33:26;3.53;;;2.85;;
56233;SDS011;42141;53.240;6.580;2023-06-05T01:36:00;7.22;;;3.13;;
56233;SDS011;42141;53.240;6.580;2023-06-05T01:38:31;6.43;;;3.13;;
56233;SDS011;42141;53.240;6.580;2023-06-05T01:40:59;4.78;;;3.08;;
56233;SDS011;42141;53.240;6.580;2023-06-05T01:43:27;5.93;;;2.85;;
56233;SDS011;42141;53.240;6.580;2023-06-05T01:45:53;5.60;;;3.22;;
56233;SDS011;42141;53.240;6.580;2023-06-05T01:48:22;7.78;;;3.20;;
56233;SDS011;42141;53.240;6.580;2023-06-05T01:51:01;6.13;;;3.45;;
56233;SDS011;42141;53.240;6.580;2023-06-05T01:53:28;5.20;;;2.97;;
56233;SDS011;42141;53.240;6.580;2023-06-05T01:55:54;5.78;;;3.53;;
56233;SDS011;42141;53.240;6.580;2023-06-05T01:58:25;5.63;;;3.20;;
56233;SDS011;42141;53.240;6.580;2023-06-05T02:00:52;7.18;;;3.90;;
56233;SDS011;42141;53.240;6.580;2023-06-05T02:03:19;8.18;;;4.07;;
56233;SDS011;42141;53.240;6.580;2023-06-05T02:05:45;6.00;;;3.47;;
56233;SDS011;42141;53.240;6.580;2023-06-05T02:08:12;7.45;;;3.67;;
56233;SDS011;42141;53.240;6.580;2023-06-05T02:10:38;3.90;;;3.08;;
56233;SDS011;42141;53.240;6.580;2023-06-05T02:13:08;4.80;;;3.47;;
56233;SDS011;42141;53.240;6.580;2023-06-05T02:15:34;5.65;;;3.75;;
56233;SDS011;42141;53.240;6.580;2023-06-05T02:18:01;5.60;;;3.53;;
56233;SDS011;42141;53.240;6.580;2023-06-05T02:20:28;7.88;;;4.07;;
56233;SDS011;42141;53.240;6.580;2023-06-05T02:22:54;5.90;;;3.83;;
56233;SDS011;42141;53.240;6.580;2023-06-05T02:25:20;6.63;;;3.75;;
56233;SDS011;42141;53.240;6.580;2023-06-05T02:27:47;6.05;;;3.83;;
56233;SDS011;42141;53.240;6.580;2023-06-05T02:30:13;10.60;;;3.70;;
56233;SDS011;42141;53.240;6.580;2023-06-05T02:32:39;6.40;;;4.10;;
56233;SDS011;42141;53.240;6.580;2023-06-05T02:35:12;8.65;;;5.38;;
56233;SDS011;42141;53.240;6.580;2023-06-05T02:37:39;10.52;;;4.10;;
56233;SDS011;42141;53.240;6.580;2023-06-05T02:40:09;8.32;;;4.10;;
56233;SDS011;42141;53.240;6.580;2023-06-05T02:42:36;5.70;;;3.08;;
56233;SDS011;42141;53.240;6.580;2023-06-05T02:45:03;8.27;;;3.97;;
56233;SDS011;42141;53.240;6.580;2023-06-05T02:47:29;5.15;;;3.30;;
56233;SDS011;42141;53.240;6.580;2023-06-05T02:49:56;4.45;;;3.20;;
56233;SDS011;42141;53.240;6.580;2023-06-05T02:52:22;8.30;;;3.15;;
56233;SDS011;42141;53.240;6.580;2023-06-05T02:54:49;5.07;;;3.13;;
56233;SDS011;42141;53.240;6.580;2023-06-05T02:57:15;4.13;;;3.22;;
56233;SDS011;42141;53.240;6.580;2023-06-05T02:59:42;6.32;;;3.80;;
56233;SDS011;42141;53.240;6.580;2023-06-05T03:02:09;5.40;;;3.42;;
56233;SDS011;42141;53.240;6.580;2023-06-05T03:04:35;4.30;;;2.50;;
56233;SDS011;42141;53.240;6.580;2023-06-05T03:07:01;5.38;;;3.42;;
56233;SDS011;42141;53.240;6.580;2023-06-05T03:09:30;4.85;;;3.45;;
56233;SDS011;42141;53.240;6.580;2023-06-05T03:11:56;5.20;;;2.83;;
56233;SDS011;42141;53.240;6.580;2023-06-05T03:14:22;4.10;;;2.97;;
56233;SDS011;42141;53.240;6.580;2023-06-05T03:16:48;5.25;;;2.97;;
56233;SDS011;42141;53.240;6.580;2023-06-05T03:19:14;4.57;;;3.20;;
56233;SDS011;42141;53.240;6.580;2023-06-05T03:21:40;7.22;;;3.33;;
56233;SDS011;42141;53.240;6.580;2023-06-05T03:24:09;5.30;;;2.75;;
56233;SDS011;42141;53.240;6.580;2023-06-05T03:26:42;4.18;;;2.97;;
56233;SDS011;42141;53.240;6.580;2023-06-05T03:29:12;5.07;;;2.75;;
56233;SDS011;42141;53.240;6.580;2023-06-05T03:31:37;5.15;;;3.10;;
56233;SDS011;42141;53.240;6.580;2023-06-05T03:34:03;5.63;;;3.20;;
56233;SDS011;42141;53.240;6.580;2023-06-05T03:36:31;5.40;;;3.88;;
56233;SDS011;42141;53.240;6.580;2023-06-05T03:38:58;6.57;;;2.40;;
56233;SDS011;42141;53.240;6.580;2023-06-05T03:41:24;5.15;;;2.40;;
56233;SDS011;42141;53.240;6.580;2023-06-05T03:43:51;3.85;;;2.38;;
56233;SDS011;42141;53.240;6.580;2023-06-05T03:46:17;3.42;;;2.75;;
56233;SDS011;42141;53.240;6.580;2023-06-05T03:48:46;8.23;;;3.28;;
56233;SDS011;42141;53.240;6.580;2023-06-05T03:51:14;5.72;;;2.70;;
56233;SDS011;42141;53.240;6.580;2023-06-05T03:53:43;4.20;;;2.42;;
56233;SDS011;42141;53.240;6.580;2023-06-05T03:56:09;4.07;;;2.50;;
56233;SDS011;42141;53.240;6.580;2023-06-05T03:58:37;4.03;;;2.70;;
56233;SDS011;42141;53.240;6.580;2023-06-05T04:01:06;6.43;;;3.00;;
56233;SDS011;42141;53.240;6.580;2023-06-05T04:03:32;3.80;;;2.22;;
56233;SDS011;42141;53.240;6.580;2023-06-05T04:06:02;6.55;;;3.08;;
56233;SDS011;42141;53.240;6.580;2023-06-05T04:08:30;5.75;;;2.78;;
56233;SDS011;42141;53.240;6.580;2023-06-05T04:10:55;4.88;;;2.80;;
56233;SDS011;42141;53.240;6.580;2023-06-05T04:13:21;5.72;;;3.10;;
56233;SDS011;42141;53.240;6.580;2023-06-05T04:15:47;6.28;;;3.75;;
56233;SDS011;42141;53.240;6.580;2023-06-05T04:18:14;4.40;;;3.10;;
56233;SDS011;42141;53.240;6.580;2023-06-05T04:20:40;3.88;;;2.92;;
56233;SDS011;42141;53.240;6.580;2023-06-05T04:23:06;5.43;;;3.08;;
56233;SDS011;42141;53.240;6.580;2023-06-05T04:25:32;3.50;;;2.60;;
56233;SDS011;42141;53.240;6.580;2023-06-05T04:27:57;4.82;;;2.42;;
56233;SDS011;42141;53.240;6.580;2023-06-05T04:30:23;3.17;;;2.28;;
56233;SDS011;42141;53.240;6.580;2023-06-05T04:32:54;2.88;;;1.90;;
56233;SDS011;42141;53.240;6.580;2023-06-05T04:35:21;3.40;;;1.77;;
56233;SDS011;42141;53.240;6.580;2023-06-05T04:37:47;2.13;;;1.42;;
56233;SDS011;42141;53.240;6.580;2023-06-05T04:40:13;2.75;;;1.70;;
56233;SDS011;42141;53.240;6.580;2023-06-05T04:42:40;3.72;;;1.90;;
56233;SDS011;42141;53.240;6.580;2023-06-05T04:45:06;3.08;;;1.70;;
56233;SDS011;42141;53.240;6.580;2023-06-05T04:47:33;4.70;;;1.60;;
56233;SDS011;42141;53.240;6.580;2023-06-05T04:50:00;2.22;;;1.33;;
56233;SDS011;42141;53.240;6.580;2023-06-05T04:52:29;3.60;;;1.30;;
56233;SDS011;42141;53.240;6.580;2023-06-05T04:55:00;1.60;;;1.27;;
56233;SDS011;42141;53.240;6.580;2023-06-05T04:57:29;1.83;;;1.15;;
56233;SDS011;42141;53.240;6.580;2023-06-05T04:59:55;1.90;;;1.48;;
56233;SDS011;42141;53.240;6.580;2023-06-05T05:02:22;1.63;;;1.20;;
56233;SDS011;42141;53.240;6.580;2023-06-05T05:04:48;2.70;;;1.65;;
56233;SDS011;42141;53.240;6.580;2023-06-05T05:07:14;2.92;;;1.95;;
56233;SDS011;42141;53.240;6.580;2023-06-05T05:09:41;3.35;;;1.13;;
56233;SDS011;42141;53.240;6.580;2023-06-05T05:12:08;4.05;;;1.77;;
56233;SDS011;42141;53.240;6.580;2023-06-05T05:14:37;2.25;;;1.27;;
56233;SDS011;42141;53.240;6.580;2023-06-05T05:17:03;2.67;;;1.10;;
56233;SDS011;42141;53.240;6.580;2023-06-05T05:19:29;2.28;;;1.50;;
56233;SDS011;42141;53.240;6.580;2023-06-05T05:21:55;1.48;;;0.88;;
56233;SDS011;42141;53.240;6.580;2023-06-05T05:24:21;2.67;;;1.38;;
56233;SDS011;42141;53.240;6.580;2023-06-05T05:26:48;2.00;;;1.23;;
56233;SDS011;42141;53.240;6.580;2023-06-05T05:29:15;2.55;;;1.55;;
56233;SDS011;42141;53.240;6.580;2023-06-05T05:31:40;2.85;;;1.42;;
56233;SDS011;42141;53.240;6.580;2023-06-05T05:34:06;2.50;;;1.27;;
56233;SDS011;42141;53.240;6.580;2023-06-05T05:36:32;2.38;;;1.40;;
56233;SDS011;42141;53.240;6.580;2023-06-05T05:39:04;2.43;;;1.00;;
56233;SDS011;42141;53.240;6.580;2023-06-05T05:41:32;1.52;;;1.02;;
56233;SDS011;42141;53.240;6.580;2023-06-05T05:43:57;1.83;;;1.13;;
56233;SDS011;42141;53.240;6.580;2023-06-05T05:46:23;1.33;;;0.90;;
56233;SDS011;42141;53.240;6.580;2023-06-05T05:48:49;3.55;;;1.25;;
56233;SDS011;42141;53.240;6.580;2023-06-05T05:51:15;1.17;;;0.98;;
56233;SDS011;42141;53.240;6.580;2023-06-05T05:53:40;1.50;;;0.80;;
56233;SDS011;42141;53.240;6.580;2023-06-05T05:56:06;1.38;;;0.70;;
56233;SDS011;42141;53.240;6.580;2023-06-05T05:58:32;1.58;;;1.00;;
56233;SDS011;42141;53.240;6.580;2023-06-05T06:00:58;1.88;;;0.77;;
56233;SDS011;42141;53.240;6.580;2023-06-05T06:03:25;3.30;;;0.90;;
56233;SDS011;42141;53.240;6.580;2023-06-05T06:05:53;1.88;;;1.00;;
56233;SDS011;42141;53.240;6.580;2023-06-05T06:08:18;1.80;;;0.98;;
56233;SDS011;42141;53.240;6.580;2023-06-05T06:10:45;3.55;;;0.90;;
56233;SDS011;42141;53.240;6.580;2023-06-05T06:13:11;1.58;;;0.95;;
56233;SDS011;42141;53.240;6.580;2023-06-05T06:15:37;2.42;;;1.27;;
56233;SDS011;42141;53.240;6.580;2023-06-05T06:18:07;2.88;;;0.80;;
56233;SDS011;42141;53.240;6.580;2023-06-05T06:20:32;3.25;;;1.25;;
56233;SDS011;42141;53.240;6.580;2023-06-05T06:22:59;1.70;;;0.80;;
56233;SDS011;42141;53.240;6.580;2023-06-05T06:25:25;1.60;;;1.05;;
56233;SDS011;42141;53.240;6.580;2023-06-05T06:27:54;1.92;;;1.00;;
56233;SDS011;42141;53.240;6.580;2023-06-05T06:30:24;1.30;;;0.77;;
56233;SDS011;42141;53.240;6.580;2023-06-05T06:32:50;4.88;;;2.88;;
56233;SDS011;42141;53.240;6.580;2023-06-05T06:35:15;2.95;;;1.30;;
56233;SDS011;42141;53.240;6.580;2023-06-05T06:37:42;2.65;;;1.10;;
56233;SDS011;42141;53.240;6.580;2023-06-05T06:40:08;1.55;;;0.90;;
56233;SDS011;42141;53.240;6.580;2023-06-05T06:42:34;1.83;;;1.17;;
56233;SDS011;42141;53.240;6.580;2023-06-05T06:45:00;1.60;;;0.98;;
56233;SDS011;42141;53.240;6.580;2023-06-05T06:47:27;2.35;;;1.58;;
56233;SDS011;42141;53.240;6.580;2023-06-05T06:49:53;3.58;;;1.23;;
56233;SDS011;42141;53.240;6.580;2023-06-05T06:52:19;3.25;;;1.50;;
56233;SDS011;42141;53.240;6.580;2023-06-05T06:54:46;3.83;;;1.42;;
56233;SDS011;42141;53.240;6.580;2023-06-05T06:57:11;2.90;;;1.83;;
56233;SDS011;42141;53.240;6.580;2023-06-05T06:59:38;1.77;;;1.05;;
56233;SDS011;42141;53.240;6.580;2023-06-05T07:04:41;3.03;;;1.05;;
56233;SDS011;42141;53.240;6.580;2023-06-05T07:07:12;4.55;;;1.15;;
56233;SDS011;42141;53.240;6.580;2023-06-05T07:09:43;2.67;;;1.20;;
56233;SDS011;42141;53.240;6.580;2023-06-05T07:12:10;4.80;;;1.40;;
56233;SDS011;42141;53.240;6.580;2023-06-05T07:14:37;2.13;;;1.17;;
56233;SDS011;42141;53.240;6.580;2023-06-05T07:17:03;1.40;;;1.10;;
56233;SDS011;42141;53.240;6.580;2023-06-05T07:19:33;1.23;;;0.80;;
56233;SDS011;42141;53.240;6.580;2023-06-05T07:22:01;1.75;;;1.10;;
56233;SDS011;42141;53.240;6.580;2023-06-05T07:24:29;2.63;;;1.08;;
56233;SDS011;42141;53.240;6.580;2023-06-05T07:27:00;2.63;;;1.00;;
56233;SDS011;42141;53.240;6.580;2023-06-05T07:29:27;5.10;;;1.08;;
56233;SDS011;42141;53.240;6.580;2023-06-05T07:31:54;2.13;;;1.10;;
56233;SDS011;42141;53.240;6.580;2023-06-05T07:34:21;2.28;;;1.10;;
56233;SDS011;42141;53.240;6.580;2023-06-05T07:36:49;2.28;;;1.02;;
56233;SDS011;42141;53.240;6.580;2023-06-05T07:39:17;3.92;;;1.00;;
56233;SDS011;42141;53.240;6.580;2023-06-05T07:41:44;1.48;;;0.85;;
56233;SDS011;42141;53.240;6.580;2023-06-05T07:44:11;1.55;;;0.88;;
56233;SDS011;42141;53.240;6.580;2023-06-05T07:46:45;1.90;;;0.98;;
56233;SDS011;42141;53.240;6.580;2023-06-05T07:49:11;2.75;;;1.17;;
56233;SDS011;42141;53.240;6.580;2023-06-05T07:51:38;2.30;;;0.95;;
56233;SDS011;42141;53.240;6.580;2023-06-05T07:54:08;1.80;;;1.05;;
56233;SDS011;42141;53.240;6.580;2023-06-05T07:56:35;2.90;;;1.00;;
56233;SDS011;42141;53.240;6.580;2023-06-05T07:59:02;1.85;;;1.20;;
56233;SDS011;42141;53.240;6.580;2023-06-05T08:01:29;1.48;;;1.08;;
56233;SDS011;42141;53.240;6.580;2023-06-05T08:03:55;2.75;;;0.90;;
56233;SDS011;42141;53.240;6.580;2023-06-05T08:06:22;2.33;;;0.93;;
56233;SDS011;42141;53.240;6.580;2023-06-05T08:08:52;1.55;;;0.88;;
56233;SDS011;42141;53.240;6.580;2023-06-05T08:11:18;1.20;;;0.93;;
56233;SDS011;42141;53.240;6.580;2023-06-05T08:13:44;2.67;;;1.20;;
56233;SDS011;42141;53.240;6.580;2023-06-05T08:16:10;3.17;;;1.20;;
56233;SDS011;42141;53.240;6.580;2023-06-05T08:18:36;4.03;;;1.10;;
56233;SDS011;42141;53.240;6.580;2023-06-05T08:21:02;1.83;;;1.13;;
56233;SDS011;42141;53.240;6.580;2023-06-05T08:23:27;1.90;;;1.00;;
56233;SDS011;42141;53.240;6.580;2023-06-05T08:25:53;1.77;;;1.10;;
56233;SDS011;42141;53.240;6.580;2023-06-05T08:28:19;1.90;;;1.23;;
56233;SDS011;42141;53.240;6.580;2023-06-05T08:30:45;4.78;;;3.58;;
56233;SDS011;42141;53.240;6.580;2023-06-05T08:33:11;2.67;;;1.40;;
56233;SDS011;42141;53.240;6.580;2023-06-05T08:35:39;3.50;;;1.60;;
56233;SDS011;42141;53.240;6.580;2023-06-05T08:38:06;2.80;;;1.02;;
56233;SDS011;42141;53.240;6.580;2023-06-05T08:40:32;2.00;;;1.45;;
56233;SDS011;42141;53.240;6.580;2023-06-05T08:42:59;3.30;;;1.05;;
56233;SDS011;42141;53.240;6.580;2023-06-05T08:45:26;2.15;;;1.30;;
56233;SDS011;42141;53.240;6.580;2023-06-05T08:47:52;2.38;;;1.50;;
56233;SDS011;42141;53.240;6.580;2023-06-05T08:50:23;2.35;;;1.35;;
56233;SDS011;42141;53.240;6.580;2023-06-05T08:52:50;2.15;;;1.23;;
56233;SDS011;42141;53.240;6.580;2023-06-05T08:55:18;2.55;;;1.40;;
56233;SDS011;42141;53.240;6.580;2023-06-05T08:57:44;3.13;;;1.70;;
56233;SDS011;42141;53.240;6.580;2023-06-05T09:00:10;1.67;;;1.20;;
56233;SDS011;42141;53.240;6.580;2023-06-05T09:02:37;3.08;;;1.10;;
56233;SDS011;42141;53.240;6.580;2023-06-05T09:05:05;4.25;;;1.52;;
56233;SDS011;42141;53.240;6.580;2023-06-05T09:07:32;2.55;;;1.60;;
56233;SDS011;42141;53.240;6.580;2023-06-05T09:09:58;4.18;;;1.48;;
56233;SDS011;42141;53.240;6.580;2023-06-05T09:12:24;3.55;;;1.80;;
56233;SDS011;42141;53.240;6.580;2023-06-05T09:14:51;3.88;;;1.85;;
56233;SDS011;42141;53.240;6.580;2023-06-05T09:17:17;1.88;;;1.40;;
56233;SDS011;42141;53.240;6.580;2023-06-05T09:19:43;2.25;;;1.20;;
56233;SDS011;42141;53.240;6.580;2023-06-05T09:22:11;3.17;;;1.40;;
56233;SDS011;42141;53.240;6.580;2023-06-05T09:24:38;2.22;;;1.13;;
56233;SDS011;42141;53.240;6.580;2023-06-05T09:27:12;1.63;;;1.35;;
56233;SDS011;42141;53.240;6.580;2023-06-05T09:29:42;3.70;;;1.73;;
56233;SDS011;42141;53.240;6.580;2023-06-05T09:34:40;1.75;;;1.27;;
56233;SDS011;42141;53.240;6.580;2023-06-05T09:37:09;2.78;;;1.23;;
56233;SDS011;42141;53.240;6.580;2023-06-05T09:39:37;1.95;;;1.00;;
56233;SDS011;42141;53.240;6.580;2023-06-05T09:42:08;2.35;;;1.02;;
56233;SDS011;42141;53.240;6.580;2023-06-05T09:44:34;3.95;;;1.17;;
56233;SDS011;42141;53.240;6.580;2023-06-05T09:47:08;2.65;;;1.30;;
56233;SDS011;42141;53.240;6.580;2023-06-05T09:52:07;2.10;;;1.43;;
56233;SDS011;42141;53.240;6.580;2023-06-05T09:54:36;1.83;;;1.20;;
56233;SDS011;42141;53.240;6.580;2023-06-05T09:57:03;1.67;;;0.93;;
56233;SDS011;42141;53.240;6.580;2023-06-05T09:59:34;2.75;;;1.33;;
56233;SDS011;42141;53.240;6.580;2023-06-05T10:02:05;1.25;;;0.90;;
56233;SDS011;42141;53.240;6.580;2023-06-05T10:04:38;2.13;;;1.20;;
56233;SDS011;42141;53.240;6.580;2023-06-05T10:07:11;1.92;;;1.08;;
56233;SDS011;42141;53.240;6.580;2023-06-05T10:09:38;1.50;;;1.05;;
56233;SDS011;42141;53.240;6.580;2023-06-05T10:12:06;1.80;;;1.13;;
56233;SDS011;42141;53.240;6.580;2023-06-05T10:14:34;1.00;;;0.70;;
56233;SDS011;42141;53.240;6.580;2023-06-05T10:17:01;1.73;;;0.90;;
56233;SDS011;42141;53.240;6.580;2023-06-05T10:19:27;1.27;;;0.90;;
56233;SDS011;42141;53.240;6.580;2023-06-05T10:21:55;1.77;;;1.10;;
56233;SDS011;42141;53.240;6.580;2023-06-05T10:24:30;2.95;;;1.30;;
56233;SDS011;42141;53.240;6.580;2023-06-05T10:34:56;1.75;;;1.10;;
56233;SDS011;42141;53.240;6.580;2023-06-05T10:37:56;3.00;;;1.15;;
56233;SDS011;42141;53.240;6.580;2023-06-05T10:40:22;1.55;;;0.88;;
56233;SDS011;42141;53.240;6.580;2023-06-05T10:42:50;1.50;;;0.80;;
56233;SDS011;42141;53.240;6.580;2023-06-05T10:45:31;4.57;;;1.50;;
56233;SDS011;42141;53.240;6.580;2023-06-05T10:47:57;1.63;;;0.95;;
56233;SDS011;42141;53.240;6.580;2023-06-05T10:50:23;0.93;;;0.73;;
56233;SDS011;42141;53.240;6.580;2023-06-05T10:52:52;1.83;;;0.70;;
56233;SDS011;42141;53.240;6.580;2023-06-05T10:55:20;3.22;;;0.77;;
56233;SDS011;42141;53.240;6.580;2023-06-05T11:00:39;1.10;;;0.88;;
56233;SDS011;42141;53.240;6.580;2023-06-05T11:03:59;2.22;;;1.02;;
56233;SDS011;42141;53.240;6.580;2023-06-05T11:06:26;2.30;;;0.95;;
56233;SDS011;42141;53.240;6.580;2023-06-05T11:09:08;1.27;;;0.70;;
56233;SDS011;42141;53.240;6.580;2023-06-05T11:11:57;1.65;;;0.85;;
56233;SDS011;42141;53.240;6.580;2023-06-05T11:16:50;1.83;;;0.98;;
56233;SDS011;42141;53.240;6.580;2023-06-05T11:24:35;3.20;;;1.00;;
56233;SDS011;42141;53.240;6.580;2023-06-05T11:27:01;1.52;;;1.00;;
56233;SDS011;42141;53.240;6.580;2023-06-05T11:29:32;2.45;;;1.08;;
56233;SDS011;42141;53.240;6.580;2023-06-05T11:31:58;8.20;;;4.93;;
56233;SDS011;42141;53.240;6.580;2023-06-05T11:34:25;3.10;;;1.38;;
56233;SDS011;42141;53.240;6.580;2023-06-05T11:36:53;2.90;;;1.00;;
56233;SDS011;42141;53.240;6.580;2023-06-05T11:39:19;1.42;;;0.70;;
56233;SDS011;42141;53.240;6.580;2023-06-05T11:41:48;2.92;;;1.65;;
56233;SDS011;42141;53.240;6.580;2023-06-05T11:44:30;1.95;;;0.88;;
56233;SDS011;42141;53.240;6.580;2023-06-05T11:46:57;3.35;;;1.30;;
56233;SDS011;42141;53.240;6.580;2023-06-05T11:49:27;1.88;;;0.95;;
56233;SDS011;42141;53.240;6.580;2023-06-05T11:51:54;2.78;;;1.30;;
56233;SDS011;42141;53.240;6.580;2023-06-05T11:54:24;2.53;;;1.20;;
56233;SDS011;42141;53.240;6.580;2023-06-05T11:56:58;1.10;;;0.90;;
56233;SDS011;42141;53.240;6.580;2023-06-05T11:59:33;2.15;;;0.85;;
56233;SDS011;42141;53.240;6.580;2023-06-05T12:02:02;1.63;;;0.93;;
56233;SDS011;42141;53.240;6.580;2023-06-05T12:04:29;1.88;;;1.10;;
56233;SDS011;42141;53.240;6.580;2023-06-05T12:06:59;2.50;;;0.90;;
56233;SDS011;42141;53.240;6.580;2023-06-05T12:09:26;1.90;;;0.95;;
56233;SDS011;42141;53.240;6.580;2023-06-05T12:11:52;2.50;;;0.93;;
56233;SDS011;42141;53.240;6.580;2023-06-05T12:14:29;2.08;;;0.95;;
56233;SDS011;42141;53.240;6.580;2023-06-05T12:16:56;1.98;;;1.08;;
56233;SDS011;42141;53.240;6.580;2023-06-05T12:19:22;1.85;;;1.00;;
56233;SDS011;42141;53.240;6.580;2023-06-05T12:21:48;1.70;;;1.25;;
56233;SDS011;42141;53.240;6.580;2023-06-05T12:24:26;2.35;;;0.95;;
56233;SDS011;42141;53.240;6.580;2023-06-05T12:26:58;4.85;;;1.27;;
56233;SDS011;42141;53.240;6.580;2023-06-05T12:29:36;1.50;;;0.95;;
56233;SDS011;42141;53.240;6.580;2023-06-05T12:32:22;2.03;;;1.20;;
56233;SDS011;42141;53.240;6.580;2023-06-05T12:34:51;2.72;;;1.08;;
56233;SDS011;42141;53.240;6.580;2023-06-05T12:37:24;3.88;;;1.20;;
56233;SDS011;42141;53.240;6.580;2023-06-05T12:40:03;2.53;;;1.35;;
56233;SDS011;42141;53.240;6.580;2023-06-05T12:42:36;2.08;;;1.02;;
56233;SDS011;42141;53.240;6.580;2023-06-05T12:45:03;1.50;;;1.20;;
56233;SDS011;42141;53.240;6.580;2023-06-05T12:47:30;2.25;;;1.50;;
56233;SDS011;42141;53.240;6.580;2023-06-05T12:49:56;3.17;;;1.85;;
56233;SDS011;42141;53.240;6.580;2023-06-05T12:52:25;1.92;;;1.38;;
56233;SDS011;42141;53.240;6.580;2023-06-05T12:54:51;3.42;;;1.70;;
56233;SDS011;42141;53.240;6.580;2023-06-05T12:57:18;2.40;;;1.60;;
56233;SDS011;42141;53.240;6.580;2023-06-05T12:59:46;1.98;;;1.40;;
56233;SDS011;42141;53.240;6.580;2023-06-05T13:02:12;2.70;;;1.85;;
56233;SDS011;42141;53.240;6.580;2023-06-05T13:04:38;4.28;;;1.75;;
56233;SDS011;42141;53.240;6.580;2023-06-05T13:07:07;2.60;;;1.60;;
56233;SDS011;42141;53.240;6.580;2023-06-05T13:09:42;1.70;;;1.42;;
56233;SDS011;42141;53.240;6.580;2023-06-05T13:12:07;2.50;;;1.55;;
56233;SDS011;42141;53.240;6.580;2023-06-05T13:14:39;1.77;;;1.50;;
56233;SDS011;42141;53.240;6.580;2023-06-05T13:17:05;2.45;;;1.67;;
56233;SDS011;42141;53.240;6.580;2023-06-05T13:19:37;3.00;;;1.40;;
56233;SDS011;42141;53.240;6.580;2023-06-05T13:22:02;2.13;;;1.48;;
56233;SDS011;42141;53.240;6.580;2023-06-05T13:24:29;4.43;;;1.63;;
56233;SDS011;42141;53.240;6.580;2023-06-05T13:26:55;3.55;;;1.90;;
56233;SDS011;42141;53.240;6.580;2023-06-05T13:29:21;3.42;;;1.58;;
56233;SDS011;42141;53.240;6.580;2023-06-05T13:31:47;3.83;;;1.58;;
56233;SDS011;42141;53.240;6.580;2023-06-05T13:34:13;4.55;;;1.77;;
56233;SDS011;42141;53.240;6.580;2023-06-05T13:36:39;2.95;;;1.60;;
56233;SDS011;42141;53.240;6.580;2023-06-05T13:39:05;2.38;;;1.75;;
56233;SDS011;42141;53.240;6.580;2023-06-05T13:41:31;3.10;;;2.10;;
56233;SDS011;42141;53.240;6.580;2023-06-05T13:43:57;3.95;;;2.38;;
56233;SDS011;42141;53.240;6.580;2023-06-05T13:46:23;5.65;;;1.73;;
56233;SDS011;42141;53.240;6.580;2023-06-05T13:48:51;2.05;;;1.45;;
56233;SDS011;42141;53.240;6.580;2023-06-05T13:51:17;3.25;;;1.70;;
56233;SDS011;42141;53.240;6.580;2023-06-05T13:53:44;3.00;;;2.05;;
56233;SDS011;42141;53.240;6.580;2023-06-05T13:56:10;2.53;;;1.50;;
56233;SDS011;42141;53.240;6.580;2023-06-05T13:58:36;3.65;;;2.00;;
56233;SDS011;42141;53.240;6.580;2023-06-05T14:01:02;4.05;;;2.00;;
56233;SDS011;42141;53.240;6.580;2023-06-05T14:03:28;3.90;;;2.00;;
56233;SDS011;42141;53.240;6.580;2023-06-05T14:05:53;2.72;;;2.13;;
56233;SDS011;42141;53.240;6.580;2023-06-05T14:08:19;4.70;;;1.83;;
56233;SDS011;42141;53.240;6.580;2023-06-05T14:10:45;6.32;;;2.20;;
56233;SDS011;42141;53.240;6.580;2023-06-05T14:13:12;3.40;;;2.20;;
56233;SDS011;42141;53.240;6.580;2023-06-05T14:15:38;4.18;;;2.65;;
56233;SDS011;42141;53.240;6.580;2023-06-05T14:18:04;4.60;;;2.10;;
56233;SDS011;42141;53.240;6.580;2023-06-05T14:20:31;3.45;;;1.90;;
56233;SDS011;42141;53.240;6.580;2023-06-05T14:22:57;4.57;;;2.50;;
56233;SDS011;42141;53.240;6.580;2023-06-05T14:25:23;5.47;;;2.38;;
56233;SDS011;42141;53.240;6.580;2023-06-05T14:27:55;3.08;;;1.80;;
56233;SDS011;42141;53.240;6.580;2023-06-05T14:30:23;4.07;;;2.13;;
56233;SDS011;42141;53.240;6.580;2023-06-05T14:32:49;3.78;;;2.33;;
56233;SDS011;42141;53.240;6.580;2023-06-05T14:35:15;3.65;;;2.00;;
56233;SDS011;42141;53.240;6.580;2023-06-05T14:37:45;4.57;;;2.55;;
56233;SDS011;42141;53.240;6.580;2023-06-05T14:40:11;4.30;;;2.38;;
56233;SDS011;42141;53.240;6.580;2023-06-05T14:42:37;7.18;;;2.65;;
56233;SDS011;42141;53.240;6.580;2023-06-05T14:45:04;3.95;;;2.65;;
56233;SDS011;42141;53.240;6.580;2023-06-05T14:47:30;5.10;;;2.70;;
56233;SDS011;42141;53.240;6.580;2023-06-05T14:49:56;2.13;;;1.58;;
56233;SDS011;42141;53.240;6.580;2023-06-05T14:52:22;4.90;;;2.00;;
56233;SDS011;42141;53.240;6.580;2023-06-05T14:54:47;3.83;;;1.85;;
56233;SDS011;42141;53.240;6.580;2023-06-05T14:57:13;3.05;;;1.92;;
56233;SDS011;42141;53.240;6.580;2023-06-05T14:59:40;2.75;;;2.33;;
56233;SDS011;42141;53.240;6.580;2023-06-05T15:02:06;4.82;;;2.72;;
56233;SDS011;42141;53.240;6.580;2023-06-05T15:04:32;5.75;;;2.75;;
56233;SDS011;42141;53.240;6.580;2023-06-05T15:06:59;5.50;;;2.88;;
56233;SDS011;42141;53.240;6.580;2023-06-05T15:09:25;5.60;;;3.28;;
56233;SDS011;42141;53.240;6.580;2023-06-05T15:11:51;5.20;;;3.50;;
56233;SDS011;42141;53.240;6.580;2023-06-05T15:14:17;4.03;;;2.95;;
56233;SDS011;42141;53.240;6.580;2023-06-05T15:16:43;4.35;;;2.40;;
56233;SDS011;42141;53.240;6.580;2023-06-05T15:19:09;5.10;;;3.05;;